sensor_id;sensor_type;location;lat;lon;timestamp;P1;durP1;ratioP1;P2;durP2;ratioP2
65206;SDS011;58477;48.072;11.970;2022-11-10T00:00:26;2.45;;;2.05;;
65206;SDS011;58477;48.072;11.970;2022-11-10T00:03:10;2.40;;;2.20;;
65206;SDS011;58477;48.072;11.970;2022-11-10T00:05:54;2.50;;;2.30;;
65206;SDS011;58477;48.072;11.970;2022-11-10T00:08:38;2.85;;;2.35;;
65206;SDS011;58477;48.072;11.970;2022-11-10T00:11:23;2.38;;;2.10;;
65206;SDS011;58477;48.072;11.970;2022-11-10T00:14:07;2.13;;;1.92;;
65206;SDS011;58477;48.072;11.970;2022-11-10T00:17:10;3.25;;;2.25;;
65206;SDS011;58477;48.072;11.970;2022-11-10T00:19:55;2.55;;;2.30;;
65206;SDS011;58477;48.072;11.970;2022-11-10T00:22:39;2.55;;;2.00;;
65206;SDS011;58477;48.072;11.970;2022-11-10T00:25:24;2.80;;;2.38;;
65206;SDS011;58477;48.072;11.970;2022-11-10T00:28:09;2.50;;;2.30;;
65206;SDS011;58477;48.072;11.970;2022-11-10T00:30:53;3.15;;;2.60;;
65206;SDS011;58477;48.072;11.970;2022-11-10T00:33:38;2.88;;;2.53;;
65206;SDS011;58477;48.072;11.970;2022-11-10T00:36:24;3.90;;;2.42;;
65206;SDS011;58477;48.072;11.970;2022-11-10T00:39:08;2.97;;;2.38;;
65206;SDS011;58477;48.072;11.970;2022-11-10T00:41:53;2.30;;;2.10;;
65206;SDS011;58477;48.072;11.970;2022-11-10T00:44:37;3.50;;;2.30;;
65206;SDS011;58477;48.072;11.970;2022-11-10T00:47:21;3.40;;;2.00;;
65206;SDS011;58477;48.072;11.970;2022-11-10T00:50:05;2.30;;;2.10;;
65206;SDS011;58477;48.072;11.970;2022-11-10T00:52:50;2.10;;;1.88;;
65206;SDS011;58477;48.072;11.970;2022-11-10T00:55:38;2.50;;;1.63;;
65206;SDS011;58477;48.072;11.970;2022-11-10T00:58:23;2.10;;;1.80;;
65206;SDS011;58477;48.072;11.970;2022-11-10T01:01:08;1.77;;;1.67;;
65206;SDS011;58477;48.072;11.970;2022-11-10T01:03:52;2.40;;;1.98;;
65206;SDS011;58477;48.072;11.970;2022-11-10T01:06:36;4.50;;;1.85;;
65206;SDS011;58477;48.072;11.970;2022-11-10T01:09:20;2.00;;;1.80;;
65206;SDS011;58477;48.072;11.970;2022-11-10T01:12:04;1.52;;;1.42;;
65206;SDS011;58477;48.072;11.970;2022-11-10T01:14:49;2.10;;;1.90;;
65206;SDS011;58477;48.072;11.970;2022-11-10T01:17:33;1.67;;;1.50;;
65206;SDS011;58477;48.072;11.970;2022-11-10T01:20:17;2.35;;;1.73;;
65206;SDS011;58477;48.072;11.970;2022-11-10T01:23:01;2.38;;;1.98;;
65206;SDS011;58477;48.072;11.970;2022-11-10T01:25:46;1.60;;;1.50;;
65206;SDS011;58477;48.072;11.970;2022-11-10T01:28:30;1.50;;;1.40;;
65206;SDS011;58477;48.072;11.970;2022-11-10T01:31:16;1.63;;;1.52;;
65206;SDS011;58477;48.072;11.970;2022-11-10T01:34:01;2.40;;;1.60;;
65206;SDS011;58477;48.072;11.970;2022-11-10T01:36:46;2.05;;;1.42;;
65206;SDS011;58477;48.072;11.970;2022-11-10T01:39:30;1.63;;;1.52;;
65206;SDS011;58477;48.072;11.970;2022-11-10T01:42:14;7.03;;;1.70;;
65206;SDS011;58477;48.072;11.970;2022-11-10T01:45:27;1.52;;;1.40;;
65206;SDS011;58477;48.072;11.970;2022-11-10T01:48:43;1.60;;;1.35;;
65206;SDS011;58477;48.072;11.970;2022-11-10T01:51:36;1.85;;;1.52;;
65206;SDS011;58477;48.072;11.970;2022-11-10T01:54:25;1.20;;;1.10;;
65206;SDS011;58477;48.072;11.970;2022-11-10T01:57:13;2.83;;;1.17;;
65206;SDS011;58477;48.072;11.970;2022-11-10T01:59:59;3.53;;;1.30;;
65206;SDS011;58477;48.072;11.970;2022-11-10T02:06:11;1.08;;;1.08;;
65206;SDS011;58477;48.072;11.970;2022-11-10T02:08:56;1.15;;;1.05;;
65206;SDS011;58477;48.072;11.970;2022-11-10T02:11:42;1.25;;;1.00;;
65206;SDS011;58477;48.072;11.970;2022-11-10T02:14:26;1.33;;;1.00;;
65206;SDS011;58477;48.072;11.970;2022-11-10T02:17:11;1.40;;;1.30;;
65206;SDS011;58477;48.072;11.970;2022-11-10T02:20:00;1.40;;;1.30;;
65206;SDS011;58477;48.072;11.970;2022-11-10T02:22:47;0.80;;;0.80;;
65206;SDS011;58477;48.072;11.970;2022-11-10T02:25:31;1.20;;;1.10;;
65206;SDS011;58477;48.072;11.970;2022-11-10T02:28:15;0.98;;;0.90;;
65206;SDS011;58477;48.072;11.970;2022-11-10T02:30:59;2.03;;;0.95;;
65206;SDS011;58477;48.072;11.970;2022-11-10T02:33:43;3.13;;;1.20;;
65206;SDS011;58477;48.072;11.970;2022-11-10T02:36:28;0.85;;;0.85;;
65206;SDS011;58477;48.072;11.970;2022-11-10T02:39:12;1.00;;;1.00;;
65206;SDS011;58477;48.072;11.970;2022-11-10T02:41:56;0.90;;;0.90;;
65206;SDS011;58477;48.072;11.970;2022-11-10T02:44:40;0.88;;;0.88;;
65206;SDS011;58477;48.072;11.970;2022-11-10T02:47:24;0.88;;;0.88;;
65206;SDS011;58477;48.072;11.970;2022-11-10T02:50:08;0.60;;;0.60;;
65206;SDS011;58477;48.072;11.970;2022-11-10T02:52:52;0.90;;;0.90;;
65206;SDS011;58477;48.072;11.970;2022-11-10T02:55:36;0.88;;;0.88;;
65206;SDS011;58477;48.072;11.970;2022-11-10T02:58:21;2.42;;;0.80;;
65206;SDS011;58477;48.072;11.970;2022-11-10T03:01:05;1.05;;;0.95;;
65206;SDS011;58477;48.072;11.970;2022-11-10T03:03:50;0.80;;;0.80;;
65206;SDS011;58477;48.072;11.970;2022-11-10T03:06:34;0.80;;;0.80;;
65206;SDS011;58477;48.072;11.970;2022-11-10T03:09:18;0.90;;;0.90;;
65206;SDS011;58477;48.072;11.970;2022-11-10T03:12:02;2.05;;;0.80;;
65206;SDS011;58477;48.072;11.970;2022-11-10T03:14:46;1.95;;;0.90;;
65206;SDS011;58477;48.072;11.970;2022-11-10T03:17:30;0.60;;;0.60;;
65206;SDS011;58477;48.072;11.970;2022-11-10T03:20:14;0.60;;;0.60;;
65206;SDS011;58477;48.072;11.970;2022-11-10T03:23:02;1.10;;;0.75;;
65206;SDS011;58477;48.072;11.970;2022-11-10T03:25:47;0.65;;;0.65;;
65206;SDS011;58477;48.072;11.970;2022-11-10T03:28:32;0.82;;;0.70;;
65206;SDS011;58477;48.072;11.970;2022-11-10T03:31:17;4.13;;;0.80;;
65206;SDS011;58477;48.072;11.970;2022-11-10T03:34:01;1.17;;;0.50;;
65206;SDS011;58477;48.072;11.970;2022-11-10T03:36:45;0.52;;;0.52;;
65206;SDS011;58477;48.072;11.970;2022-11-10T03:39:30;2.60;;;1.17;;
65206;SDS011;58477;48.072;11.970;2022-11-10T03:42:14;7.32;;;1.08;;
65206;SDS011;58477;48.072;11.970;2022-11-10T03:44:58;2.65;;;0.90;;
65206;SDS011;58477;48.072;11.970;2022-11-10T03:47:46;1.70;;;0.80;;
65206;SDS011;58477;48.072;11.970;2022-11-10T03:50:31;0.75;;;0.75;;
65206;SDS011;58477;48.072;11.970;2022-11-10T03:53:15;1.15;;;0.80;;
65206;SDS011;58477;48.072;11.970;2022-11-10T03:56:00;2.58;;;0.90;;
65206;SDS011;58477;48.072;11.970;2022-11-10T03:58:47;1.25;;;1.05;;
65206;SDS011;58477;48.072;11.970;2022-11-10T04:01:31;1.38;;;1.08;;
65206;SDS011;58477;48.072;11.970;2022-11-10T04:04:15;4.55;;;1.42;;
65206;SDS011;58477;48.072;11.970;2022-11-10T04:07:18;2.50;;;1.05;;
65206;SDS011;58477;48.072;11.970;2022-11-10T04:10:21;2.75;;;1.20;;
65206;SDS011;58477;48.072;11.970;2022-11-10T04:13:05;3.00;;;1.08;;
65206;SDS011;58477;48.072;11.970;2022-11-10T04:16:08;3.22;;;1.30;;
65206;SDS011;58477;48.072;11.970;2022-11-10T04:18:52;4.15;;;1.13;;
65206;SDS011;58477;48.072;11.970;2022-11-10T04:21:37;1.80;;;1.20;;
65206;SDS011;58477;48.072;11.970;2022-11-10T04:24:21;2.00;;;1.33;;
65206;SDS011;58477;48.072;11.970;2022-11-10T04:27:05;6.97;;;1.40;;
65206;SDS011;58477;48.072;11.970;2022-11-10T04:29:49;3.65;;;1.40;;
65206;SDS011;58477;48.072;11.970;2022-11-10T04:32:33;3.78;;;1.15;;
65206;SDS011;58477;48.072;11.970;2022-11-10T04:35:17;1.88;;;1.30;;
65206;SDS011;58477;48.072;11.970;2022-11-10T04:38:01;5.90;;;1.40;;
65206;SDS011;58477;48.072;11.970;2022-11-10T04:40:45;6.53;;;1.50;;
65206;SDS011;58477;48.072;11.970;2022-11-10T04:43:30;3.95;;;1.60;;
65206;SDS011;58477;48.072;11.970;2022-11-10T04:46:25;7.28;;;1.70;;
65206;SDS011;58477;48.072;11.970;2022-11-10T04:49:09;3.80;;;1.80;;
65206;SDS011;58477;48.072;11.970;2022-11-10T04:51:54;5.32;;;1.73;;
65206;SDS011;58477;48.072;11.970;2022-11-10T04:54:38;3.53;;;2.22;;
65206;SDS011;58477;48.072;11.970;2022-11-10T04:57:22;2.80;;;1.80;;
65206;SDS011;58477;48.072;11.970;2022-11-10T05:00:06;5.05;;;2.38;;
65206;SDS011;58477;48.072;11.970;2022-11-10T05:02:51;5.10;;;2.35;;
65206;SDS011;58477;48.072;11.970;2022-11-10T05:05:35;5.57;;;2.08;;
65206;SDS011;58477;48.072;11.970;2022-11-10T05:08:19;4.40;;;2.63;;
65206;SDS011;58477;48.072;11.970;2022-11-10T05:11:04;4.88;;;2.20;;
65206;SDS011;58477;48.072;11.970;2022-11-10T05:13:48;5.15;;;2.40;;
65206;SDS011;58477;48.072;11.970;2022-11-10T05:16:32;5.10;;;2.45;;
65206;SDS011;58477;48.072;11.970;2022-11-10T05:19:16;4.70;;;2.25;;
65206;SDS011;58477;48.072;11.970;2022-11-10T05:22:00;4.18;;;2.17;;
65206;SDS011;58477;48.072;11.970;2022-11-10T05:24:45;8.05;;;3.00;;
65206;SDS011;58477;48.072;11.970;2022-11-10T05:27:28;5.65;;;2.58;;
65206;SDS011;58477;48.072;11.970;2022-11-10T05:30:12;3.22;;;2.25;;
65206;SDS011;58477;48.072;11.970;2022-11-10T05:32:57;7.45;;;3.05;;
65206;SDS011;58477;48.072;11.970;2022-11-10T05:35:41;6.43;;;2.40;;
65206;SDS011;58477;48.072;11.970;2022-11-10T05:38:27;3.97;;;2.55;;
65206;SDS011;58477;48.072;11.970;2022-11-10T05:41:11;3.20;;;2.72;;
65206;SDS011;58477;48.072;11.970;2022-11-10T05:43:56;8.15;;;3.28;;
65206;SDS011;58477;48.072;11.970;2022-11-10T05:46:44;7.75;;;3.03;;
65206;SDS011;58477;48.072;11.970;2022-11-10T05:49:28;7.28;;;3.05;;
65206;SDS011;58477;48.072;11.970;2022-11-10T05:52:12;9.75;;;3.47;;
65206;SDS011;58477;48.072;11.970;2022-11-10T05:54:56;6.82;;;3.55;;
65206;SDS011;58477;48.072;11.970;2022-11-10T05:57:45;5.65;;;2.78;;
65206;SDS011;58477;48.072;11.970;2022-11-10T06:00:30;7.68;;;3.00;;
65206;SDS011;58477;48.072;11.970;2022-11-10T06:03:16;6.53;;;3.67;;
65206;SDS011;58477;48.072;11.970;2022-11-10T06:06:02;6.80;;;3.00;;
65206;SDS011;58477;48.072;11.970;2022-11-10T06:08:46;8.82;;;3.17;;
65206;SDS011;58477;48.072;11.970;2022-11-10T06:11:30;9.77;;;3.17;;
65206;SDS011;58477;48.072;11.970;2022-11-10T06:14:14;5.57;;;2.80;;
65206;SDS011;58477;48.072;11.970;2022-11-10T06:16:58;8.05;;;3.00;;
65206;SDS011;58477;48.072;11.970;2022-11-10T06:19:43;7.60;;;2.70;;
65206;SDS011;58477;48.072;11.970;2022-11-10T06:22:27;11.38;;;3.67;;
65206;SDS011;58477;48.072;11.970;2022-11-10T06:25:11;7.68;;;3.03;;
65206;SDS011;58477;48.072;11.970;2022-11-10T06:27:55;10.10;;;3.20;;
65206;SDS011;58477;48.072;11.970;2022-11-10T06:30:39;3.90;;;2.90;;
65206;SDS011;58477;48.072;11.970;2022-11-10T06:33:24;3.90;;;2.67;;
65206;SDS011;58477;48.072;11.970;2022-11-10T06:36:08;4.65;;;2.90;;
65206;SDS011;58477;48.072;11.970;2022-11-10T06:38:52;5.75;;;2.88;;
65206;SDS011;58477;48.072;11.970;2022-11-10T06:41:36;5.28;;;2.92;;
65206;SDS011;58477;48.072;11.970;2022-11-10T06:44:20;7.30;;;3.00;;
65206;SDS011;58477;48.072;11.970;2022-11-10T06:47:04;8.73;;;3.10;;
65206;SDS011;58477;48.072;11.970;2022-11-10T06:49:48;7.07;;;3.15;;
65206;SDS011;58477;48.072;11.970;2022-11-10T06:52:32;9.95;;;3.50;;
65206;SDS011;58477;48.072;11.970;2022-11-10T06:55:17;6.15;;;3.15;;
65206;SDS011;58477;48.072;11.970;2022-11-10T06:58:00;5.68;;;2.70;;
65206;SDS011;58477;48.072;11.970;2022-11-10T07:00:45;3.60;;;2.92;;
65206;SDS011;58477;48.072;11.970;2022-11-10T07:03:29;8.95;;;2.88;;
65206;SDS011;58477;48.072;11.970;2022-11-10T07:06:13;5.30;;;2.30;;
65206;SDS011;58477;48.072;11.970;2022-11-10T07:08:57;6.13;;;2.20;;
65206;SDS011;58477;48.072;11.970;2022-11-10T07:11:41;5.30;;;2.38;;
65206;SDS011;58477;48.072;11.970;2022-11-10T07:14:25;5.03;;;2.85;;
65206;SDS011;58477;48.072;11.970;2022-11-10T07:17:09;5.40;;;2.92;;
65206;SDS011;58477;48.072;11.970;2022-11-10T07:19:53;6.30;;;3.05;;
65206;SDS011;58477;48.072;11.970;2022-11-10T07:22:37;6.93;;;2.88;;
65206;SDS011;58477;48.072;11.970;2022-11-10T07:25:21;4.78;;;3.08;;
65206;SDS011;58477;48.072;11.970;2022-11-10T07:28:06;6.78;;;3.67;;
65206;SDS011;58477;48.072;11.970;2022-11-10T07:30:53;6.97;;;3.40;;
65206;SDS011;58477;48.072;11.970;2022-11-10T07:33:37;9.98;;;3.20;;
65206;SDS011;58477;48.072;11.970;2022-11-10T07:36:21;4.85;;;3.30;;
65206;SDS011;58477;48.072;11.970;2022-11-10T07:39:05;5.93;;;3.33;;
65206;SDS011;58477;48.072;11.970;2022-11-10T07:41:49;7.20;;;3.67;;
65206;SDS011;58477;48.072;11.970;2022-11-10T07:44:33;5.45;;;3.38;;
65206;SDS011;58477;48.072;11.970;2022-11-10T07:47:18;10.25;;;4.00;;
65206;SDS011;58477;48.072;11.970;2022-11-10T07:50:02;5.65;;;4.07;;
65206;SDS011;58477;48.072;11.970;2022-11-10T07:52:46;7.18;;;4.18;;
65206;SDS011;58477;48.072;11.970;2022-11-10T07:55:30;5.32;;;3.75;;
65206;SDS011;58477;48.072;11.970;2022-11-10T07:58:15;6.43;;;3.17;;
65206;SDS011;58477;48.072;11.970;2022-11-10T08:01:00;4.35;;;2.85;;
65206;SDS011;58477;48.072;11.970;2022-11-10T08:03:44;7.70;;;3.10;;
65206;SDS011;58477;48.072;11.970;2022-11-10T08:06:29;5.97;;;3.63;;
65206;SDS011;58477;48.072;11.970;2022-11-10T08:09:14;8.18;;;3.45;;
65206;SDS011;58477;48.072;11.970;2022-11-10T08:11:58;4.38;;;2.83;;
65206;SDS011;58477;48.072;11.970;2022-11-10T08:14:42;5.63;;;2.92;;
65206;SDS011;58477;48.072;11.970;2022-11-10T08:17:26;4.97;;;2.00;;
65206;SDS011;58477;48.072;11.970;2022-11-10T08:20:10;3.67;;;2.08;;
65206;SDS011;58477;48.072;11.970;2022-11-10T08:22:55;7.00;;;2.55;;
65206;SDS011;58477;48.072;11.970;2022-11-10T08:25:41;4.68;;;1.90;;
65206;SDS011;58477;48.072;11.970;2022-11-10T08:28:25;4.90;;;2.20;;
65206;SDS011;58477;48.072;11.970;2022-11-10T08:31:10;7.63;;;1.92;;
65206;SDS011;58477;48.072;11.970;2022-11-10T08:33:53;4.05;;;1.80;;
65206;SDS011;58477;48.072;11.970;2022-11-10T08:36:37;1.63;;;1.33;;
65206;SDS011;58477;48.072;11.970;2022-11-10T08:39:22;2.90;;;1.30;;
65206;SDS011;58477;48.072;11.970;2022-11-10T08:42:06;2.67;;;1.30;;
65206;SDS011;58477;48.072;11.970;2022-11-10T08:44:50;3.10;;;1.50;;
65206;SDS011;58477;48.072;11.970;2022-11-10T08:47:34;1.63;;;1.33;;
65206;SDS011;58477;48.072;11.970;2022-11-10T08:50:18;4.95;;;2.00;;
65206;SDS011;58477;48.072;11.970;2022-11-10T08:53:03;3.05;;;1.90;;
65206;SDS011;58477;48.072;11.970;2022-11-10T08:55:56;6.25;;;1.75;;
65206;SDS011;58477;48.072;11.970;2022-11-10T08:58:41;4.95;;;2.00;;
65206;SDS011;58477;48.072;11.970;2022-11-10T09:01:25;4.03;;;1.70;;
65206;SDS011;58477;48.072;11.970;2022-11-10T09:04:09;2.47;;;1.40;;
65206;SDS011;58477;48.072;11.970;2022-11-10T09:06:53;1.42;;;1.17;;
65206;SDS011;58477;48.072;11.970;2022-11-10T09:09:40;5.53;;;1.15;;
65206;SDS011;58477;48.072;11.970;2022-11-10T09:12:24;2.50;;;1.10;;
65206;SDS011;58477;48.072;11.970;2022-11-10T09:15:08;2.67;;;1.20;;
65206;SDS011;58477;48.072;11.970;2022-11-10T09:17:56;1.83;;;1.05;;
65206;SDS011;58477;48.072;11.970;2022-11-10T09:20:41;3.28;;;1.20;;
65206;SDS011;58477;48.072;11.970;2022-11-10T09:23:26;2.30;;;1.13;;
65206;SDS011;58477;48.072;11.970;2022-11-10T09:26:10;3.47;;;1.30;;
65206;SDS011;58477;48.072;11.970;2022-11-10T09:28:55;4.75;;;1.30;;
65206;SDS011;58477;48.072;11.970;2022-11-10T09:31:39;6.13;;;1.38;;
65206;SDS011;58477;48.072;11.970;2022-11-10T09:34:25;1.63;;;1.05;;
65206;SDS011;58477;48.072;11.970;2022-11-10T09:37:10;2.85;;;1.05;;
65206;SDS011;58477;48.072;11.970;2022-11-10T09:39:54;1.80;;;1.00;;
65206;SDS011;58477;48.072;11.970;2022-11-10T09:42:38;2.72;;;1.35;;
65206;SDS011;58477;48.072;11.970;2022-11-10T09:51:11;3.38;;;1.23;;
65206;SDS011;58477;48.072;11.970;2022-11-10T09:54:08;5.07;;;1.17;;
65206;SDS011;58477;48.072;11.970;2022-11-10T09:56:57;3.38;;;1.10;;
65206;SDS011;58477;48.072;11.970;2022-11-10T09:59:43;3.60;;;1.10;;
65206;SDS011;58477;48.072;11.970;2022-11-10T10:08:30;3.47;;;0.90;;
65206;SDS011;58477;48.072;11.970;2022-11-10T10:14:26;5.45;;;1.30;;
65206;SDS011;58477;48.072;11.970;2022-11-10T10:20:16;4.90;;;1.45;;
65206;SDS011;58477;48.072;11.970;2022-11-10T10:26:09;1.20;;;0.98;;
65206;SDS011;58477;48.072;11.970;2022-11-10T10:29:00;2.20;;;1.00;;
65206;SDS011;58477;48.072;11.970;2022-11-10T10:31:49;2.38;;;1.23;;
65206;SDS011;58477;48.072;11.970;2022-11-10T10:34:34;3.13;;;1.10;;
65206;SDS011;58477;48.072;11.970;2022-11-10T10:40:08;4.85;;;1.20;;
65206;SDS011;58477;48.072;11.970;2022-11-10T10:42:57;2.10;;;1.00;;
65206;SDS011;58477;48.072;11.970;2022-11-10T10:45:42;4.88;;;1.30;;
65206;SDS011;58477;48.072;11.970;2022-11-10T10:48:27;2.08;;;0.90;;
65206;SDS011;58477;48.072;11.970;2022-11-10T10:51:28;6.25;;;1.23;;
65206;SDS011;58477;48.072;11.970;2022-11-10T10:54:23;2.95;;;1.00;;
65206;SDS011;58477;48.072;11.970;2022-11-10T10:57:26;5.00;;;1.25;;
65206;SDS011;58477;48.072;11.970;2022-11-10T11:06:11;1.80;;;0.98;;
65206;SDS011;58477;48.072;11.970;2022-11-10T11:11:58;2.58;;;1.10;;
65206;SDS011;58477;48.072;11.970;2022-11-10T11:14:44;3.42;;;1.10;;
65206;SDS011;58477;48.072;11.970;2022-11-10T11:17:29;4.97;;;0.68;;
65206;SDS011;58477;48.072;11.970;2022-11-10T11:20:13;3.95;;;0.80;;
65206;SDS011;58477;48.072;11.970;2022-11-10T11:23:00;2.42;;;0.90;;
65206;SDS011;58477;48.072;11.970;2022-11-10T11:25:51;2.60;;;0.90;;
65206;SDS011;58477;48.072;11.970;2022-11-10T11:28:41;3.58;;;1.30;;
65206;SDS011;58477;48.072;11.970;2022-11-10T11:43:48;2.45;;;1.00;;
65206;SDS011;58477;48.072;11.970;2022-11-10T11:47:03;7.22;;;1.17;;
65206;SDS011;58477;48.072;11.970;2022-11-10T11:59:05;4.57;;;1.42;;
65206;SDS011;58477;48.072;11.970;2022-11-10T12:02:22;3.05;;;1.10;;
65206;SDS011;58477;48.072;11.970;2022-11-10T12:08:38;3.20;;;0.95;;
65206;SDS011;58477;48.072;11.970;2022-11-10T12:20:43;2.33;;;1.20;;
65206;SDS011;58477;48.072;11.970;2022-11-10T12:29:32;1.77;;;0.82;;
65206;SDS011;58477;48.072;11.970;2022-11-10T12:32:40;2.55;;;1.10;;
65206;SDS011;58477;48.072;11.970;2022-11-10T12:35:34;2.83;;;1.10;;
65206;SDS011;58477;48.072;11.970;2022-11-10T12:41:45;2.38;;;1.13;;
65206;SDS011;58477;48.072;11.970;2022-11-10T12:44:47;5.78;;;1.08;;
65206;SDS011;58477;48.072;11.970;2022-11-10T12:47:45;3.70;;;1.30;;
65206;SDS011;58477;48.072;11.970;2022-11-10T12:54:09;4.10;;;1.25;;
65206;SDS011;58477;48.072;11.970;2022-11-10T12:57:04;2.85;;;1.10;;
65206;SDS011;58477;48.072;11.970;2022-11-10T13:02:45;2.08;;;1.02;;
65206;SDS011;58477;48.072;11.970;2022-11-10T13:13:57;7.38;;;1.23;;
65206;SDS011;58477;48.072;11.970;2022-11-10T13:22:11;2.22;;;0.93;;
65206;SDS011;58477;48.072;11.970;2022-11-10T13:43:21;1.92;;;0.77;;
65206;SDS011;58477;48.072;11.970;2022-11-10T13:46:07;3.70;;;0.93;;
65206;SDS011;58477;48.072;11.970;2022-11-10T13:48:58;2.58;;;0.90;;
65206;SDS011;58477;48.072;11.970;2022-11-10T13:52:08;3.20;;;1.00;;
65206;SDS011;58477;48.072;11.970;2022-11-10T13:58:08;2.35;;;0.93;;
65206;SDS011;58477;48.072;11.970;2022-11-10T14:04:01;3.33;;;1.00;;
65206;SDS011;58477;48.072;11.970;2022-11-10T14:06:49;5.80;;;0.93;;
65206;SDS011;58477;48.072;11.970;2022-11-10T14:09:35;6.05;;;0.80;;
65206;SDS011;58477;48.072;11.970;2022-11-10T14:15:12;5.60;;;0.98;;
65206;SDS011;58477;48.072;11.970;2022-11-10T14:18:02;5.05;;;0.98;;
65206;SDS011;58477;48.072;11.970;2022-11-10T14:21:11;1.80;;;0.70;;
65206;SDS011;58477;48.072;11.970;2022-11-10T14:24:24;2.22;;;0.73;;
65206;SDS011;58477;48.072;11.970;2022-11-10T14:27:19;2.83;;;0.80;;
65206;SDS011;58477;48.072;11.970;2022-11-10T14:30:09;3.53;;;1.10;;
65206;SDS011;58477;48.072;11.970;2022-11-10T14:33:02;2.58;;;1.40;;
65206;SDS011;58477;48.072;11.970;2022-11-10T14:35:50;6.00;;;1.15;;
65206;SDS011;58477;48.072;11.970;2022-11-10T14:38:41;2.35;;;1.10;;
65206;SDS011;58477;48.072;11.970;2022-11-10T14:41:27;7.47;;;1.30;;
65206;SDS011;58477;48.072;11.970;2022-11-10T14:44:11;3.17;;;0.90;;
65206;SDS011;58477;48.072;11.970;2022-11-10T14:47:20;2.30;;;1.10;;
65206;SDS011;58477;48.072;11.970;2022-11-10T14:50:26;3.42;;;0.90;;
65206;SDS011;58477;48.072;11.970;2022-11-10T14:56:16;3.67;;;1.05;;
65206;SDS011;58477;48.072;11.970;2022-11-10T14:59:04;4.75;;;1.00;;
65206;SDS011;58477;48.072;11.970;2022-11-10T15:01:59;3.00;;;0.98;;
65206;SDS011;58477;48.072;11.970;2022-11-10T15:04:44;1.77;;;1.08;;
65206;SDS011;58477;48.072;11.970;2022-11-10T15:07:30;4.10;;;1.23;;
65206;SDS011;58477;48.072;11.970;2022-11-10T15:10:17;5.25;;;1.75;;
65206;SDS011;58477;48.072;11.970;2022-11-10T15:24:55;12.82;;;4.63;;
65206;SDS011;58477;48.072;11.970;2022-11-10T15:27:50;9.45;;;3.92;;
65206;SDS011;58477;48.072;11.970;2022-11-10T15:30:48;8.20;;;3.30;;
65206;SDS011;58477;48.072;11.970;2022-11-10T15:33:34;5.88;;;2.47;;
65206;SDS011;58477;48.072;11.970;2022-11-10T15:41:56;3.65;;;1.48;;
65206;SDS011;58477;48.072;11.970;2022-11-10T15:44:43;2.38;;;1.50;;
65206;SDS011;58477;48.072;11.970;2022-11-10T15:47:29;4.15;;;1.90;;
65206;SDS011;58477;48.072;11.970;2022-11-10T15:50:13;6.95;;;2.97;;
65206;SDS011;58477;48.072;11.970;2022-11-10T15:52:58;7.72;;;2.92;;
65206;SDS011;58477;48.072;11.970;2022-11-10T15:55:43;10.55;;;3.40;;
65206;SDS011;58477;48.072;11.970;2022-11-10T15:58:28;4.93;;;2.50;;
65206;SDS011;58477;48.072;11.970;2022-11-10T16:01:12;7.15;;;3.20;;
65206;SDS011;58477;48.072;11.970;2022-11-10T16:03:57;8.90;;;4.05;;
65206;SDS011;58477;48.072;11.970;2022-11-10T16:06:42;12.77;;;3.17;;
65206;SDS011;58477;48.072;11.970;2022-11-10T16:09:26;8.15;;;4.63;;
65206;SDS011;58477;48.072;11.970;2022-11-10T16:12:17;9.82;;;4.55;;
65206;SDS011;58477;48.072;11.970;2022-11-10T16:15:03;9.23;;;5.53;;
65206;SDS011;58477;48.072;11.970;2022-11-10T16:17:49;14.35;;;5.32;;
65206;SDS011;58477;48.072;11.970;2022-11-10T16:20:33;14.35;;;5.25;;
65206;SDS011;58477;48.072;11.970;2022-11-10T16:23:17;17.77;;;7.20;;
65206;SDS011;58477;48.072;11.970;2022-11-10T16:26:02;13.32;;;5.95;;
65206;SDS011;58477;48.072;11.970;2022-11-10T16:28:47;7.10;;;3.28;;
65206;SDS011;58477;48.072;11.970;2022-11-10T16:31:32;9.93;;;3.30;;
65206;SDS011;58477;48.072;11.970;2022-11-10T16:34:17;9.95;;;3.40;;
65206;SDS011;58477;48.072;11.970;2022-11-10T16:37:01;7.32;;;3.53;;
65206;SDS011;58477;48.072;11.970;2022-11-10T16:39:46;5.55;;;3.10;;
65206;SDS011;58477;48.072;11.970;2022-11-10T16:42:30;13.15;;;4.70;;
65206;SDS011;58477;48.072;11.970;2022-11-10T16:45:21;15.07;;;7.88;;
65206;SDS011;58477;48.072;11.970;2022-11-10T16:48:06;14.32;;;7.20;;
65206;SDS011;58477;48.072;11.970;2022-11-10T16:50:51;20.05;;;8.15;;
65206;SDS011;58477;48.072;11.970;2022-11-10T16:53:36;22.10;;;11.15;;
65206;SDS011;58477;48.072;11.970;2022-11-10T16:56:21;36.25;;;17.90;;
65206;SDS011;58477;48.072;11.970;2022-11-10T16:59:05;42.08;;;18.48;;
65206;SDS011;58477;48.072;11.970;2022-11-10T17:01:49;41.70;;;19.73;;
65206;SDS011;58477;48.072;11.970;2022-11-10T17:04:35;36.05;;;15.55;;
65206;SDS011;58477;48.072;11.970;2022-11-10T17:07:23;47.20;;;21.02;;
65206;SDS011;58477;48.072;11.970;2022-11-10T17:10:15;38.30;;;17.77;;
65206;SDS011;58477;48.072;11.970;2022-11-10T17:13:00;29.05;;;14.90;;
65206;SDS011;58477;48.072;11.970;2022-11-10T17:15:44;28.17;;;12.07;;
65206;SDS011;58477;48.072;11.970;2022-11-10T17:18:29;12.98;;;7.47;;
65206;SDS011;58477;48.072;11.970;2022-11-10T17:21:14;25.63;;;10.13;;
65206;SDS011;58477;48.072;11.970;2022-11-10T17:23:58;16.00;;;8.52;;
65206;SDS011;58477;48.072;11.970;2022-11-10T17:26:43;20.70;;;7.97;;
65206;SDS011;58477;48.072;11.970;2022-11-10T17:29:27;12.07;;;7.28;;
65206;SDS011;58477;48.072;11.970;2022-11-10T17:32:11;6.80;;;4.90;;
65206;SDS011;58477;48.072;11.970;2022-11-10T17:34:56;16.33;;;7.60;;
65206;SDS011;58477;48.072;11.970;2022-11-10T17:37:39;17.50;;;10.85;;
65206;SDS011;58477;48.072;11.970;2022-11-10T17:40:26;21.02;;;11.82;;
65206;SDS011;58477;48.072;11.970;2022-11-10T17:43:11;33.45;;;20.23;;
65206;SDS011;58477;48.072;11.970;2022-11-10T17:45:56;30.00;;;17.15;;
65206;SDS011;58477;48.072;11.970;2022-11-10T17:48:40;23.27;;;14.13;;
65206;SDS011;58477;48.072;11.970;2022-11-10T17:51:25;30.73;;;18.85;;
65206;SDS011;58477;48.072;11.970;2022-11-10T17:54:12;34.47;;;21.42;;
65206;SDS011;58477;48.072;11.970;2022-11-10T17:56:57;30.77;;;19.63;;
65206;SDS011;58477;48.072;11.970;2022-11-10T17:59:41;30.17;;;17.60;;
65206;SDS011;58477;48.072;11.970;2022-11-10T18:02:25;30.17;;;17.13;;
65206;SDS011;58477;48.072;11.970;2022-11-10T18:05:10;18.83;;;10.20;;
65206;SDS011;58477;48.072;11.970;2022-11-10T18:07:56;16.58;;;8.35;;
65206;SDS011;58477;48.072;11.970;2022-11-10T18:10:49;21.60;;;11.82;;
65206;SDS011;58477;48.072;11.970;2022-11-10T18:13:35;21.60;;;11.35;;
65206;SDS011;58477;48.072;11.970;2022-11-10T18:16:20;19.50;;;10.55;;
65206;SDS011;58477;48.072;11.970;2022-11-10T18:19:04;20.70;;;10.32;;
65206;SDS011;58477;48.072;11.970;2022-11-10T18:21:48;16.88;;;8.05;;
65206;SDS011;58477;48.072;11.970;2022-11-10T18:24:33;15.13;;;8.68;;
65206;SDS011;58477;48.072;11.970;2022-11-10T18:27:17;17.52;;;9.90;;
65206;SDS011;58477;48.072;11.970;2022-11-10T18:30:02;21.27;;;10.95;;
65206;SDS011;58477;48.072;11.970;2022-11-10T18:32:47;20.60;;;11.02;;
65206;SDS011;58477;48.072;11.970;2022-11-10T18:35:33;14.18;;;9.35;;
65206;SDS011;58477;48.072;11.970;2022-11-10T18:38:20;21.80;;;10.93;;
65206;SDS011;58477;48.072;11.970;2022-11-10T18:41:05;27.48;;;15.23;;
65206;SDS011;58477;48.072;11.970;2022-11-10T18:44:08;27.13;;;17.25;;
65206;SDS011;58477;48.072;11.970;2022-11-10T18:46:52;27.77;;;17.50;;
65206;SDS011;58477;48.072;11.970;2022-11-10T18:49:36;32.42;;;19.60;;
65206;SDS011;58477;48.072;11.970;2022-11-10T18:52:20;29.60;;;17.60;;